createdAt,value
2019-04-20T00:01:28.114Z,41.54
2019-04-20T00:03:55.576Z,42.30
2019-04-20T00:06:27.086Z,42.39
2019-04-20T00:09:08.793Z,41.98
2019-04-20T00:11:41.635Z,42.28
2019-04-20T00:14:09.011Z,42.28
2019-04-20T00:16:35.744Z,41.87
2019-04-20T00:19:07.705Z,41.69
2019-04-20T00:21:50.669Z,41.61
2019-04-20T00:24:23.364Z,41.60
2019-04-20T00:27:26.055Z,41.94
2019-04-20T00:29:43.702Z,42.06
2019-04-20T00:32:06.014Z,41.75
2019-04-20T00:34:36.500Z,41.74
2019-04-20T00:37:05.164Z,41.98
2019-04-20T00:39:36.086Z,41.94
2019-04-20T00:42:11.123Z,41.82
2019-04-20T00:44:41.283Z,41.28
2019-04-20T00:47:25.275Z,41.84
2019-04-20T00:49:58.039Z,41.70
2019-04-20T00:52:38.933Z,41.86
2019-04-20T00:54:49.359Z,42.31
2019-04-20T00:57:30.538Z,42.21
2019-04-20T01:00:11.144Z,41.98
2019-04-20T01:02:38.356Z,41.60
2019-04-20T01:05:16.533Z,41.03
2019-04-20T01:07:39.502Z,40.87
2019-04-20T01:10:08.985Z,41.55
2019-04-20T01:12:42.044Z,41.56
2019-04-20T01:15:23.661Z,41.67
2019-04-20T01:17:46.832Z,41.83
2019-04-20T01:20:18.412Z,41.92
2019-04-20T01:22:55.950Z,41.74
2019-04-20T01:25:30.089Z,41.49
2019-04-20T01:28:14.862Z,41.39
2019-04-20T01:30:35.923Z,41.44
2019-04-20T01:33:16.333Z,41.98
2019-04-20T01:35:48.839Z,41.83
2019-04-20T01:38:21.250Z,42.12
2019-04-20T01:40:38.652Z,41.62
2019-04-20T01:43:10.047Z,41.73
2019-04-20T01:45:42.730Z,41.58
2019-04-20T01:48:14.167Z,41.52
2019-04-20T01:50:55.070Z,41.72
2019-04-20T01:53:39.153Z,41.78
2019-04-20T01:56:12.489Z,41.50
2019-04-20T01:58:50.520Z,41.66
2019-04-20T02:01:27.136Z,42.09
2019-04-20T02:04:23.798Z,42.19
2019-04-20T02:06:50.382Z,42.23
2019-04-20T02:09:22.229Z,42.40
2019-04-20T02:11:53.830Z,42.32
2019-04-20T02:14:35.145Z,42.03
2019-04-20T02:17:08.291Z,41.86
2019-04-20T02:19:44.199Z,41.84
2019-04-20T02:22:13.563Z,41.85
2019-04-20T02:24:34.026Z,41.90
2019-04-20T02:27:06.106Z,42.09
2019-04-20T02:29:58.151Z,41.79
2019-04-20T02:32:36.615Z,42.21
2019-04-20T02:35:36.208Z,42.31
2019-04-20T02:38:12.145Z,42.03
2019-04-20T02:40:47.814Z,41.66
2019-04-20T02:45:44.921Z,41.79
2019-04-20T02:48:14.099Z,41.86
2019-04-20T02:50:49.897Z,42.00
2019-04-20T02:55:57.705Z,41.99
2019-04-20T02:58:32.771Z,41.98
2019-04-20T03:00:52.334Z,42.27
2019-04-20T03:03:15.919Z,42.04
2019-04-20T03:05:45.440Z,42.69
2019-04-20T03:08:22.377Z,42.55
2019-04-20T03:11:09.001Z,42.25
2019-04-20T03:13:34.909Z,42.70
2019-04-20T03:16:09.111Z,42.37
2019-04-20T03:18:35.068Z,42.33
2019-04-20T03:21:15.047Z,42.73
2019-04-20T03:23:45.842Z,43.06
2019-04-20T03:26:17.616Z,43.16
2019-04-20T03:29:05.553Z,43.16
2019-04-20T03:32:28.506Z,42.63
2019-04-20T03:34:58.875Z,42.56
2019-04-20T03:37:15.632Z,42.47
2019-04-20T03:39:32.397Z,42.06
2019-04-20T03:41:54.913Z,41.92
2019-04-20T03:44:26.499Z,41.99
2019-04-20T03:46:59.719Z,41.91
2019-04-20T03:49:58.017Z,42.00
2019-04-20T03:52:26.188Z,42.37
2019-04-20T03:55:15.078Z,42.46
2019-04-20T03:57:54.104Z,42.54
2019-04-20T04:00:37.514Z,42.32
2019-04-20T04:03:39.173Z,42.35
2019-04-20T04:05:55.976Z,42.42
2019-04-20T04:08:26.615Z,42.49
2019-04-20T04:11:09.774Z,42.55
2019-04-20T04:13:21.280Z,42.68
2019-04-20T04:15:59.349Z,42.78
2019-04-20T04:18:31.921Z,42.55
2019-04-20T04:21:03.852Z,42.57
2019-04-20T04:23:44.451Z,42.29
2019-04-20T04:26:24.631Z,42.63
2019-04-20T04:28:47.499Z,42.75
2019-04-20T04:31:28.119Z,43.65
2019-04-20T04:33:59.395Z,43.84
2019-04-20T04:36:28.913Z,43.70
2019-04-20T04:39:22.356Z,43.13
2019-04-20T04:41:36.801Z,42.87
2019-04-20T04:44:04.780Z,42.57
2019-04-20T04:46:22.685Z,42.18
2019-04-20T04:49:03.612Z,42.14
2019-04-20T04:51:33.227Z,41.88
2019-04-20T04:54:12.729Z,41.76
2019-04-20T04:56:33.596Z,42.51
2019-04-20T04:59:04.493Z,42.21
2019-04-20T05:01:37.214Z,41.63
2019-04-20T05:04:32.103Z,41.23
2019-04-20T05:06:54.787Z,40.84
2019-04-20T05:09:15.358Z,40.13
2019-04-20T05:11:44.739Z,39.70
2019-04-20T05:14:23.583Z,39.75
2019-04-20T05:17:04.566Z,39.44
2019-04-20T05:19:46.141Z,39.88
2019-04-20T05:22:17.807Z,39.12
2019-04-20T05:24:53.727Z,38.76
2019-04-20T05:27:33.610Z,37.95
2019-04-20T05:29:44.723Z,37.86
2019-04-20T05:32:24.952Z,37.72
2019-04-20T05:35:19.696Z,38.43
2019-04-20T05:37:51.462Z,37.79
2019-04-20T05:40:16.242Z,37.00
2019-04-20T05:42:52.516Z,38.16
2019-04-20T05:45:20.581Z,38.03
2019-04-20T05:47:58.527Z,36.82
2019-04-20T05:50:34.477Z,36.70
2019-04-20T05:53:09.957Z,37.32
2019-04-20T05:55:39.095Z,36.72
2019-04-20T05:58:17.868Z,36.50
2019-04-20T06:00:55.036Z,36.16
2019-04-20T06:03:20.275Z,32.63
2019-04-20T06:05:59.356Z,30.72
2019-04-20T06:08:40.289Z,30.20
2019-04-20T06:11:01.999Z,29.65
2019-04-20T06:13:27.880Z,29.07
2019-04-20T06:16:07.442Z,28.71
2019-04-20T06:19:00.717Z,26.31
2019-04-20T06:21:37.991Z,23.43
2019-04-20T06:24:27.798Z,22.53
2019-04-20T06:26:51.918Z,22.74
2019-04-20T06:29:09.410Z,22.31
2019-04-20T06:31:46.808Z,20.66
2019-04-20T06:39:34.781Z,19.86
2019-04-20T06:44:36.840Z,18.78
2019-04-20T06:47:11.611Z,18.10
2019-04-20T06:49:38.407Z,18.08
2019-04-20T06:52:24.361Z,17.76
2019-04-20T06:55:09.917Z,17.86
2019-04-20T07:00:15.330Z,18.81
2019-04-20T07:02:55.444Z,19.10
2019-04-20T07:05:22.364Z,18.08
2019-04-20T07:08:00.791Z,17.73
2019-04-20T07:10:34.494Z,17.27
2019-04-20T07:12:56.167Z,17.45
2019-04-20T07:15:29.038Z,17.68
2019-04-20T07:18:08.117Z,17.22
2019-04-20T07:20:47.334Z,17.94
2019-04-20T07:23:24.284Z,17.87
2019-04-20T07:25:47.629Z,17.61
2019-04-20T07:28:19.632Z,17.93
2019-04-20T07:30:53.957Z,17.99
2019-04-20T07:33:24.630Z,17.77
2019-04-20T07:35:50.910Z,17.61
2019-04-20T07:40:56.082Z,17.99
2019-04-20T07:43:34.858Z,18.12
2019-04-20T07:46:04.313Z,17.67
2019-04-20T07:48:29.278Z,17.97
2019-04-20T07:50:58.249Z,17.68
2019-04-20T07:53:33.004Z,18.90
2019-04-20T07:56:13.134Z,18.25
2019-04-20T07:58:38.062Z,18.22
2019-04-20T08:01:39.088Z,18.08
2019-04-20T08:04:20.882Z,17.70
2019-04-20T08:06:38.101Z,18.02
2019-04-20T08:09:16.107Z,18.08
2019-04-20T08:12:04.675Z,18.21
2019-04-20T08:14:35.701Z,17.67
2019-04-20T08:17:14.313Z,18.08
2019-04-20T08:19:28.650Z,17.25
2019-04-20T08:22:07.709Z,17.94
2019-04-20T08:24:34.485Z,17.41
2019-04-20T08:26:55.928Z,17.31
2019-04-20T08:29:47.500Z,17.56
2019-04-20T08:32:45.196Z,16.96
2019-04-20T08:35:22.189Z,16.67
2019-04-20T08:38:13.255Z,17.39
2019-04-20T08:40:29.973Z,17.12
2019-04-20T08:43:05.468Z,17.02
2019-04-20T08:45:35.051Z,17.71
2019-04-20T08:48:02.846Z,18.15
2019-04-20T08:50:36.233Z,18.02
2019-04-20T08:53:16.061Z,18.36
2019-04-20T08:55:40.100Z,18.01
2019-04-20T08:57:54.272Z,18.08
2019-04-20T09:00:34.834Z,18.48
2019-04-20T09:03:06.937Z,17.83
2019-04-20T09:05:42.360Z,17.16
2019-04-20T09:08:13.496Z,17.10
2019-04-20T09:10:56.519Z,17.51
2019-04-20T09:13:20.086Z,17.31
2019-04-20T09:15:40.407Z,17.41
2019-04-20T09:18:22.874Z,16.76
2019-04-20T09:20:52.962Z,16.96
2019-04-20T09:23:31.454Z,17.14
2019-04-20T09:26:08.982Z,17.08
2019-04-20T09:28:36.325Z,17.04
2019-04-20T09:31:27.002Z,16.32
2019-04-20T09:34:01.546Z,16.06
2019-04-20T09:36:47.216Z,15.79
2019-04-20T09:39:21.418Z,16.14
2019-04-20T09:42:01.399Z,16.20
2019-04-20T09:44:39.829Z,16.14
2019-04-20T09:47:06.439Z,16.60
2019-04-20T09:49:49.628Z,16.40
2019-04-20T09:52:21.291Z,16.20
2019-04-20T09:54:59.390Z,16.67
2019-04-20T09:57:33.892Z,15.97
2019-04-20T10:00:01.521Z,16.70
2019-04-20T10:02:25.882Z,16.85
2019-04-20T10:04:53.497Z,16.92
2019-04-20T10:07:28.694Z,17.48
2019-04-20T10:09:57.858Z,18.20
2019-04-20T10:12:29.343Z,17.49
2019-04-20T10:15:04.191Z,16.65
2019-04-20T10:17:34.023Z,17.75
2019-04-20T10:20:10.857Z,17.52
2019-04-20T10:22:38.957Z,18.01
2019-04-20T10:25:10.800Z,17.29
2019-04-20T10:27:42.407Z,17.11
2019-04-20T10:30:14.600Z,17.36
2019-04-20T10:32:50.376Z,17.46
2019-04-20T10:35:18.828Z,16.88
2019-04-20T10:37:51.591Z,17.02
2019-04-20T10:40:37.778Z,17.63
2019-04-20T10:42:55.189Z,17.83
2019-04-20T10:45:26.913Z,18.01
2019-04-20T10:47:57.537Z,16.79
2019-04-20T10:50:29.293Z,17.40
2019-04-20T10:52:59.876Z,18.61
2019-04-20T10:55:31.441Z,18.29
2019-04-20T10:58:02.037Z,18.14
2019-04-20T11:00:44.226Z,17.61
2019-04-20T11:03:15.921Z,17.51
2019-04-20T11:05:48.791Z,18.51
2019-04-20T11:08:20.348Z,17.66
2019-04-20T11:11:04.614Z,18.52
2019-04-20T11:13:23.596Z,18.03
2019-04-20T11:15:54.676Z,17.95
2019-04-20T11:18:27.337Z,18.96
2019-04-20T11:20:59.340Z,19.12
2019-04-20T11:23:30.080Z,19.36
2019-04-20T11:26:02.138Z,19.25
2019-04-20T11:28:32.894Z,19.49
2019-04-20T11:31:04.075Z,20.98
2019-04-20T11:33:34.709Z,18.96
2019-04-20T11:36:07.041Z,18.11
2019-04-20T11:41:16.289Z,19.59
2019-04-20T11:43:39.877Z,18.80
2019-04-20T11:46:10.459Z,18.09
2019-04-20T11:48:41.386Z,16.57
2019-04-20T11:51:12.012Z,17.47
2019-04-20T11:53:42.789Z,17.21
2019-04-20T11:56:20.360Z,18.32
2019-04-20T11:58:47.027Z,17.51
2019-04-20T12:01:22.526Z,17.93
2019-04-20T12:04:01.613Z,18.23
2019-04-20T12:06:26.620Z,17.65
2019-04-20T12:08:58.978Z,17.65
2019-04-20T12:11:39.352Z,18.88
2019-04-20T12:14:02.741Z,17.55
2019-04-20T12:16:33.591Z,17.99
2019-04-20T12:19:04.409Z,18.25
2019-04-20T12:21:34.999Z,18.70
2019-04-20T12:24:06.779Z,18.68
2019-04-20T12:26:38.657Z,18.74
2019-04-20T12:29:09.926Z,18.16
2019-04-20T12:31:44.330Z,18.46
2019-04-20T12:34:13.037Z,18.84
2019-04-20T12:36:44.807Z,19.21
2019-04-20T12:39:15.476Z,19.15
2019-04-20T12:41:52.940Z,18.53
2019-04-20T12:44:19.659Z,18.74
2019-04-20T12:46:50.343Z,18.47
2019-04-20T12:49:20.914Z,18.36
2019-04-20T12:51:59.300Z,18.54
2019-04-20T12:54:24.903Z,18.06
2019-04-20T12:56:56.304Z,17.96
2019-04-20T12:59:27.570Z,18.82
2019-04-20T13:01:59.429Z,18.56
2019-04-20T13:04:30.490Z,18.08
2019-04-20T13:07:05.914Z,17.51
2019-04-20T13:09:40.881Z,17.50
2019-04-20T13:12:13.917Z,17.18
2019-04-20T13:14:58.572Z,17.27
2019-04-20T13:17:30.477Z,17.13
2019-04-20T13:20:02.076Z,17.72
2019-04-20T13:22:32.958Z,17.03
2019-04-20T13:25:07.325Z,18.65
2019-04-20T13:27:38.909Z,19.55
2019-04-20T13:30:11.120Z,19.55
2019-04-20T13:32:43.683Z,19.36
2019-04-20T13:35:14.323Z,19.78
2019-04-20T13:37:45.697Z,19.30
2019-04-20T13:40:19.450Z,19.47
2019-04-20T13:42:51.794Z,19.47
2019-04-20T13:45:24.672Z,19.43
2019-04-20T13:47:56.975Z,19.15
2019-04-20T13:50:29.736Z,19.19
2019-04-20T13:53:01.161Z,19.69
2019-04-20T13:55:31.922Z,18.18
2019-04-20T13:58:13.905Z,17.97
2019-04-20T14:00:53.485Z,17.70
2019-04-20T14:03:25.823Z,17.47
2019-04-20T14:05:58.563Z,17.16
2019-04-20T14:08:31.498Z,16.86
2019-04-20T14:11:03.149Z,16.83
2019-04-20T14:13:38.104Z,17.49
2019-04-20T14:16:09.117Z,16.40
2019-04-20T14:18:40.949Z,16.40
2019-04-20T14:21:12.243Z,16.27
2019-04-20T14:23:43.230Z,16.27
2019-04-20T14:26:14.655Z,16.43
2019-04-20T14:28:45.333Z,16.43
2019-04-20T14:31:16.131Z,17.18
2019-04-20T14:33:48.777Z,17.87
2019-04-20T14:36:21.442Z,17.87
2019-04-20T14:38:52.035Z,18.48
2019-04-20T14:41:22.791Z,18.48
2019-04-20T14:43:53.420Z,18.88
2019-04-20T14:46:26.237Z,18.70
2019-04-20T14:48:56.674Z,19.17
2019-04-20T14:51:27.873Z,20.12
2019-04-20T14:53:59.217Z,20.42
2019-04-20T14:56:29.848Z,19.75
2019-04-20T14:59:05.239Z,19.86
2019-04-20T15:01:38.683Z,19.71
2019-04-20T15:04:14.901Z,19.98
2019-04-20T15:06:42.467Z,20.15
2019-04-20T15:09:14.710Z,19.21
2019-04-20T15:11:46.575Z,19.85
2019-04-20T15:14:18.672Z,19.74
2019-04-20T15:16:50.759Z,20.36
2019-04-20T15:19:23.491Z,21.15
2019-04-20T15:22:03.142Z,20.92
2019-04-20T15:24:33.830Z,21.51
2019-04-20T15:27:04.821Z,21.06
2019-04-20T15:29:36.053Z,21.88
2019-04-20T15:32:08.181Z,20.84
2019-04-20T15:34:39.188Z,20.61
2019-04-20T15:37:10.029Z,20.85
2019-04-20T15:39:41.560Z,21.35
2019-04-20T15:42:12.173Z,21.42
2019-04-20T15:44:43.073Z,20.95
2019-04-20T15:47:15.261Z,20.87
2019-04-20T15:49:46.213Z,21.73
2019-04-20T15:52:19.897Z,22.10
2019-04-20T15:54:49.692Z,22.39
2019-04-20T15:57:25.316Z,22.26
2019-04-20T15:59:52.848Z,22.19
2019-04-20T16:02:31.550Z,22.32
2019-04-20T16:05:04.167Z,22.61
2019-04-20T16:07:40.037Z,22.83
2019-04-20T16:10:07.562Z,22.50
2019-04-20T16:12:38.593Z,23.26
2019-04-20T16:15:09.555Z,23.05
2019-04-20T16:17:45.415Z,23.65
2019-04-20T16:20:19.323Z,23.36
2019-04-20T16:22:46.741Z,23.33
2019-04-20T16:25:31.856Z,23.16
2019-04-20T16:28:03.621Z,22.88
2019-04-20T16:30:35.741Z,23.02
2019-04-20T16:33:06.492Z,23.34
2019-04-20T16:35:38.407Z,23.22
2019-04-20T16:38:09.107Z,22.97
2019-04-20T16:40:39.705Z,23.38
2019-04-20T16:43:22.137Z,23.30
2019-04-20T16:45:43.232Z,23.80
2019-04-20T16:48:14.003Z,24.22
2019-04-20T16:50:46.779Z,23.62
2019-04-20T16:53:17.497Z,23.78
2019-04-20T16:55:48.478Z,22.99
2019-04-20T16:58:19.802Z,23.47
2019-04-20T17:00:51.760Z,23.76
2019-04-20T17:03:31.741Z,22.99
2019-04-20T17:05:56.023Z,22.62
2019-04-20T17:08:27.034Z,22.70
2019-04-20T17:10:58.133Z,22.42
2019-04-20T17:13:38.199Z,22.37
2019-04-20T17:16:01.813Z,22.58
2019-04-20T17:18:33.995Z,22.66
2019-04-20T17:21:15.558Z,22.50
2019-04-20T17:23:41.492Z,22.31
2019-04-20T17:26:12.707Z,22.51
2019-04-20T17:28:55.556Z,22.56
2019-04-20T17:31:29.340Z,22.60
2019-04-20T17:34:11.309Z,22.78
2019-04-20T17:36:36.297Z,22.61
2019-04-20T17:39:10.496Z,22.80
2019-04-20T17:41:54.552Z,22.76
2019-04-20T17:44:28.699Z,22.53
2019-04-20T17:46:58.193Z,22.64
2019-04-20T17:49:29.501Z,23.33
2019-04-20T17:52:14.274Z,23.69
2019-04-20T17:54:37.854Z,24.06
2019-04-20T17:57:11.061Z,24.57
2019-04-20T17:59:46.358Z,25.01
2019-04-20T18:02:37.322Z,25.77
2019-04-20T18:05:19.772Z,26.40
2019-04-20T18:07:44.833Z,27.73
2019-04-20T18:10:17.483Z,27.60
2019-04-20T18:12:37.454Z,27.68
2019-04-20T18:15:22.919Z,27.70
2019-04-20T18:18:13.633Z,27.78
2019-04-20T18:20:34.885Z,28.20
2019-04-20T18:23:28.117Z,28.90
2019-04-20T18:26:17.173Z,29.89
2019-04-20T18:28:51.607Z,30.92
2019-04-20T18:31:04.320Z,31.32
2019-04-20T18:33:38.363Z,31.32
2019-04-20T18:36:13.288Z,31.83
2019-04-20T18:38:49.627Z,31.79
2019-04-20T18:41:24.342Z,32.47
2019-04-20T18:43:50.779Z,32.83
2019-04-20T18:46:42.880Z,33.00
2019-04-20T18:49:09.798Z,33.12
2019-04-20T18:51:23.990Z,33.23
2019-04-20T18:53:55.677Z,33.06
2019-04-20T18:56:32.418Z,33.07
2019-04-20T18:59:01.099Z,33.47
2019-04-20T19:01:34.904Z,33.62
2019-04-20T19:04:05.649Z,33.93
2019-04-20T19:06:36.412Z,33.68
2019-04-20T19:09:09.523Z,33.88
2019-04-20T19:11:44.805Z,33.36
2019-04-20T19:14:32.537Z,33.55
2019-04-20T19:17:09.024Z,34.29
2019-04-20T19:19:39.387Z,33.65
2019-04-20T19:22:04.326Z,33.79
2019-04-20T19:24:37.869Z,34.15
2019-04-20T19:27:14.978Z,34.97
2019-04-20T19:29:54.645Z,34.80
2019-04-20T19:32:30.365Z,35.15
2019-04-20T19:34:59.330Z,35.35
2019-04-20T19:37:28.658Z,35.52
2019-04-20T19:40:05.596Z,35.90
2019-04-20T19:42:39.171Z,36.40
2019-04-20T19:45:29.093Z,36.44
2019-04-20T19:47:48.267Z,36.00
2019-04-20T19:50:35.620Z,35.12
2019-04-20T19:53:05.681Z,34.83
2019-04-20T19:55:29.842Z,35.30
2019-04-20T19:58:02.640Z,35.40
2019-04-20T20:00:22.835Z,35.40
2019-04-20T20:02:54.334Z,34.48
2019-04-20T20:05:36.247Z,34.14
2019-04-20T20:08:05.501Z,34.69
2019-04-20T20:10:37.709Z,34.04
2019-04-20T20:13:08.243Z,34.75
2019-04-20T20:15:41.794Z,34.21
2019-04-20T20:18:30.658Z,34.49
2019-04-20T20:20:59.575Z,33.86
2019-04-20T20:23:18.714Z,34.45
2019-04-20T20:25:50.117Z,34.29
2019-04-20T20:28:31.033Z,34.46
2019-04-20T20:31:05.051Z,33.97
2019-04-20T20:33:45.403Z,34.41
2019-04-20T20:36:05.679Z,34.47
2019-04-20T20:38:42.573Z,34.68
2019-04-20T20:41:15.197Z,34.72
2019-04-20T20:43:48.919Z,35.26
2019-04-20T20:46:23.953Z,35.16
2019-04-20T20:49:06.206Z,35.46
2019-04-20T20:51:39.228Z,35.90
2019-04-20T20:53:57.898Z,35.97
2019-04-20T20:56:27.411Z,36.43
2019-04-20T20:59:06.385Z,36.61
2019-04-20T21:01:37.798Z,36.76
2019-04-20T21:03:58.663Z,36.45
2019-04-20T21:06:30.594Z,36.46
2019-04-20T21:09:02.954Z,36.28
2019-04-20T21:11:36.347Z,36.36
2019-04-20T21:14:07.301Z,36.39
2019-04-20T21:16:47.005Z,35.97
2019-04-20T21:19:24.559Z,36.13
2019-04-20T21:21:50.450Z,36.54
2019-04-20T21:24:23.694Z,36.82
2019-04-20T21:26:55.986Z,36.45
2019-04-20T21:29:35.335Z,36.71
2019-04-20T21:32:05.097Z,36.99
2019-04-20T21:34:33.058Z,36.85
2019-04-20T21:37:10.672Z,36.98
2019-04-20T21:39:44.735Z,36.67
2019-04-20T21:42:15.847Z,36.76
2019-04-20T21:44:45.363Z,36.53
2019-04-20T21:47:22.377Z,36.60
2019-04-20T21:49:57.769Z,36.83
2019-04-20T21:52:26.931Z,36.24
2019-04-20T21:54:52.182Z,36.47
2019-04-20T21:57:24.086Z,36.00
2019-04-20T22:00:06.041Z,35.87
2019-04-20T22:02:33.850Z,36.12
2019-04-20T22:05:01.268Z,35.82
2019-04-20T22:07:34.295Z,36.18
2019-04-20T22:10:13.982Z,36.29
2019-04-20T22:12:47.573Z,36.01
2019-04-20T22:15:19.852Z,36.11
2019-04-20T22:17:46.437Z,36.05
2019-04-20T22:20:26.736Z,35.94
2019-04-20T22:23:03.001Z,35.98
2019-04-20T22:25:37.333Z,36.15
2019-04-20T22:27:56.980Z,36.07
2019-04-20T22:30:26.501Z,36.33
2019-04-20T22:33:00.845Z,36.27
2019-04-20T22:35:31.373Z,36.43
2019-04-20T22:38:20.473Z,36.40
2019-04-20T22:40:52.470Z,36.47
2019-04-20T22:43:27.317Z,37.08
2019-04-20T22:45:57.212Z,37.51
2019-04-20T22:48:29.089Z,37.60
2019-04-20T22:51:22.364Z,37.43
2019-04-20T22:53:44.721Z,37.85
2019-04-20T22:56:25.210Z,38.47
2019-04-20T22:58:48.817Z,38.44
2019-04-20T23:01:23.273Z,39.14
2019-04-20T23:03:42.999Z,39.01
2019-04-20T23:06:14.586Z,39.25
2019-04-20T23:08:47.318Z,39.48
2019-04-20T23:11:23.608Z,39.58
2019-04-20T23:13:52.042Z,39.92
2019-04-20T23:16:22.970Z,39.90
2019-04-20T23:18:54.142Z,40.16
2019-04-20T23:21:25.865Z,40.23
2019-04-20T23:24:02.250Z,40.05
2019-04-20T23:26:33.528Z,40.29
2019-04-20T23:29:02.662Z,40.41
2019-04-20T23:31:34.544Z,40.33
2019-04-20T23:34:12.831Z,40.52
2019-04-20T23:36:42.321Z,40.95
2019-04-20T23:39:13.037Z,41.06
2019-04-20T23:41:53.771Z,40.97
2019-04-20T23:44:18.953Z,41.08
2019-04-20T23:47:02.076Z,41.01
2019-04-20T23:49:34.129Z,41.04
2019-04-20T23:52:27.653Z,40.95
2019-04-20T23:54:37.198Z,40.92
2019-04-20T23:57:07.992Z,40.83
2019-04-20T23:59:42.834Z,40.67
